Terminal Aerodrome Forecast
Issued by NWS Portland, ME

Home | Current Version | Previous Version | Text Only | Print | Product List | Glossary On
Versions: 1 2 3 4 5 6 7 8 9 10 11 12 13 14 15 16
000
FTUS41 KGYX 260528
TAFCON
TAF
KCON 260528Z 2606/2706 32007KT P6SM BKN250
     FM261400 01005KT P6SM SCT120 OVC200
     FM262100 05005KT 4SM -SN BKN025 OVC050
     FM270300 36010G17KT 2SM -SN OVC012=

USA.gov is the U.S. government's official web portal to all federal, state and local government web resources and services.